Airfield :
LOGIN :

Register | Disclaimer

   EN    FR    IT 

 










Legend :    VFR   Marginal VFR   IFR   Intensive IFR   Very Intensive IFR
Visi :
Ceiling :
>= 8 km
>= 3000ft
5 to 8 km
1000 to 3000 ft
1500m to 5 km
500 to 1000 ft
800 to 1500m
200 to 500 ft
< 800m
< 200 ft
Symbols :   Thunderstorms  Fog  Heavy snow  Heavy precipitations  Wind > 20 kt
SIGMETs :     Misc.  Thunderstorms  Icing  Turbulence  Mountain Waves  Volcanic Ashes






- Airport Elevation : 7 ft
- IATA code : XHE


LFTH - Hyeres

CURRENT METAR :
  • 220100Z AUTO 03003KT 9999 ///CB 16/15 Q1019 BECMG BKN014

EXPIRED METARs :
  • 220030Z AUTO 34006KT 300V020 9999 -RA FEW018/// OVC094/// ///TCU 16/15 Q1019 BECMG BKN014
  • 220000Z AUTO 31005KT 9999 SCT047/// OVC096/// ///TCU 17/14 Q1020 BECMG BKN014
  • 212330Z AUTO 31004KT 9999 BKN046/// OVC096/// ///CB 17/14 Q1020 BECMG BKN014
  • 212300Z AUTO 30007KT 9999 BKN045 OVC110 18/14 Q1019 BECMG BKN014
  • 212230Z AUTO 32004KT 9999 FEW046 BKN120 17/14 Q1019 BECMG BKN014

TAF TAF LFTH
Valid from the 21 at 21:00 until the 22 at 21:00 UTC


212000Z 2121/2221 02005KT 9999 BKN050
BECMG 2200/2202 BKN014
BECMG 2206/2207 07015G25KT CAVOK
BECMG 2209/2210 08025G35KT SCT020



MET'MAP, your aeronautical weather chart ! - Copyright ORBIFLY December 2007 - Disclaimer

ORBIFLY MET'MAP TEAM :

Programming & Development : Alexandra Zaïnal
Concept & Development : Baudouin d'Aumeries
Co-Development & Prog : Marc-Olivier Méhu
Technical & hardware support : Manuel Goepfert

Contact : metmap@orbifly.com




SOURCES & CREDITS :

   NOAA